Time;durP1;ratioP1;P1;durP2;ratioP2;P2;SDS_P1;SDS_P2;PMS_P1;PMS_P2;Temp;Humidity;BMP_temperature;BMP_pressure;BME280_temperature;BME280_humidity;BME280_pressure;Samples;Min_cycle;Max_cycle;Signal;HPM_P1;HPM_P2
2022/02/26 00:00:44;;;;;;;2.10;1.10;;;;;;;;;;5072323;28;20029;-44
2022/02/26 00:03:11;;;;;;;2.03;0.85;;;;;;;;;;5072315;28;20031;-44
2022/02/26 00:05:37;;;;;;;2.92;0.95;;;;;;;;;;5085022;28;20035;-46
2022/02/26 00:08:03;;;;;;;2.58;0.77;;;;;;;;;;5092274;28;20024;-46
2022/02/26 00:10:29;;;;;;;2.70;0.68;;;;;;;;;;5091423;28;20471;-45
2022/02/26 00:12:55;;;;;;;1.98;0.80;;;;;;;;;;5092324;28;20145;-48
2022/02/26 00:15:21;;;;;;;5.95;1.42;;;;;;;;;;5079811;28;20112;-48
2022/02/26 00:17:48;;;;;;;1.63;0.60;;;;;;;;;;5073207;28;20024;-45
2022/02/26 00:20:14;;;;;;;2.90;1.00;;;;;;;;;;5071761;28;20024;-45
2022/02/26 00:22:40;;;;;;;2.75;0.82;;;;;;;;;;5071381;28;20074;-46
2022/02/26 00:25:07;;;;;;;0.77;0.55;;;;;;;;;;5071881;28;20024;-48
2022/02/26 00:27:33;;;;;;;2.67;0.73;;;;;;;;;;5071472;28;20028;-45
2022/02/26 00:29:59;;;;;;;2.70;0.68;;;;;;;;;;5091356;28;20094;-43
2022/02/26 00:32:25;;;;;;;2.55;1.00;;;;;;;;;;5090089;28;20028;-43
2022/02/26 00:34:51;;;;;;;1.70;1.00;;;;;;;;;;5075801;28;20095;-44
2022/02/26 00:37:17;;;;;;;1.90;0.75;;;;;;;;;;5076532;28;20032;-43
2022/02/26 00:39:43;;;;;;;1.35;0.70;;;;;;;;;;5094081;28;20095;-43
2022/02/26 00:42:10;;;;;;;5.25;1.50;;;;;;;;;;5094325;28;20066;-45
2022/02/26 00:44:38;;;;;;;4.22;1.02;;;;;;;;;;5088641;28;20461;-42
2022/02/26 00:47:04;;;;;;;1.83;0.88;;;;;;;;;;5095531;28;20085;-43
2022/02/26 00:49:49;;;;;;;1.83;0.95;;;;;;;;;;5094612;28;20032;-44
2022/02/26 00:52:16;;;;;;;3.35;0.98;;;;;;;;;;5095193;28;20549;-43
2022/02/26 00:54:42;;;;;;;1.00;0.68;;;;;;;;;;5095063;28;20032;-43
2022/02/26 00:57:08;;;;;;;3.63;0.80;;;;;;;;;;5095323;28;20055;-45
2022/02/26 00:59:34;;;;;;;1.80;0.70;;;;;;;;;;5074136;28;20141;-43
2022/02/26 01:02:00;;;;;;;1.95;0.77;;;;;;;;;;5091729;28;20210;-42
2022/02/26 01:04:26;;;;;;;3.67;1.15;;;;;;;;;;5094788;28;20129;-42
2022/02/26 01:06:53;;;;;;;1.15;0.75;;;;;;;;;;5094761;28;20020;-43
2022/02/26 01:09:19;;;;;;;2.58;0.82;;;;;;;;;;5093429;28;20113;-42
2022/02/26 01:11:45;;;;;;;2.05;0.98;;;;;;;;;;5094256;28;20067;-42
2022/02/26 01:14:11;;;;;;;0.90;0.70;;;;;;;;;;5094760;28;20051;-45
2022/02/26 01:16:37;;;;;;;4.05;1.48;;;;;;;;;;5094551;28;20031;-43
2022/02/26 01:19:04;;;;;;;1.25;0.85;;;;;;;;;;5094618;28;20129;-42
2022/02/26 01:21:30;;;;;;;2.08;0.70;;;;;;;;;;5094258;28;20032;-43
2022/02/26 01:23:56;;;;;;;2.22;0.80;;;;;;;;;;5078314;28;20043;-43
2022/02/26 01:26:22;;;;;;;2.70;0.95;;;;;;;;;;5074432;28;20112;-43
2022/02/26 01:28:48;;;;;;;1.75;0.70;;;;;;;;;;5089461;28;20047;-42
2022/02/26 01:31:14;;;;;;;1.65;0.93;;;;;;;;;;5095135;28;20407;-43
2022/02/26 01:33:40;;;;;;;1.27;0.80;;;;;;;;;;5092382;28;20095;-44
2022/02/26 01:36:07;;;;;;;1.45;0.90;;;;;;;;;;5075701;28;20024;-43
2022/02/26 01:38:33;;;;;;;1.75;0.70;;;;;;;;;;5086143;28;20377;-43
2022/02/26 01:40:59;;;;;;;1.55;0.85;;;;;;;;;;5095026;28;20036;-43
2022/02/26 01:43:26;;;;;;;2.20;0.82;;;;;;;;;;5089243;28;20047;-42
2022/02/26 01:45:53;;;;;;;1.27;0.75;;;;;;;;;;5074646;28;20029;-43
2022/02/26 01:48:19;;;;;;;1.60;0.70;;;;;;;;;;5084640;28;20036;-42
2022/02/26 01:50:45;;;;;;;1.10;0.60;;;;;;;;;;5094043;28;20035;-43
2022/02/26 01:53:11;;;;;;;0.88;0.52;;;;;;;;;;5094263;28;20074;-43
2022/02/26 01:55:38;;;;;;;1.65;0.75;;;;;;;;;;5078891;28;20054;-44
2022/02/26 01:58:04;;;;;;;2.50;0.88;;;;;;;;;;5081937;28;20028;-44
2022/02/26 02:00:30;;;;;;;1.58;0.73;;;;;;;;;;5094066;28;20028;-45
2022/02/26 02:02:57;;;;;;;1.55;0.60;;;;;;;;;;5076794;28;20040;-45
2022/02/26 02:05:27;;;;;;;1.42;0.75;;;;;;;;;;5073618;28;20079;-44
2022/02/26 02:07:53;;;;;;;2.80;0.90;;;;;;;;;;5078372;28;20039;-43
2022/02/26 02:10:20;;;;;;;1.33;0.70;;;;;;;;;;5094197;28;20024;-43
2022/02/26 02:12:47;;;;;;;1.77;0.98;;;;;;;;;;5085725;28;20036;-43
2022/02/26 02:15:13;;;;;;;1.25;0.55;;;;;;;;;;5073646;28;20055;-44
2022/02/26 02:17:41;;;;;;;1.42;0.80;;;;;;;;;;5078936;28;20024;-45
2022/02/26 02:20:07;;;;;;;0.52;0.47;;;;;;;;;;5086067;28;20107;-42
2022/02/26 02:22:33;;;;;;;1.35;0.70;;;;;;;;;;5072876;28;20047;-44
2022/02/26 02:24:59;;;;;;;2.03;0.73;;;;;;;;;;5074751;28;20470;-43
2022/02/26 02:27:25;;;;;;;1.55;0.82;;;;;;;;;;5072874;28;20020;-43
2022/02/26 02:29:53;;;;;;;1.38;0.70;;;;;;;;;;5081183;28;20051;-45
2022/02/26 02:32:19;;;;;;;2.42;1.02;;;;;;;;;;5082078;28;20025;-43
2022/02/26 02:34:45;;;;;;;1.95;0.73;;;;;;;;;;5077838;28;20019;-45
2022/02/26 02:37:11;;;;;;;0.98;0.60;;;;;;;;;;5093130;28;20032;-48
2022/02/26 02:39:38;;;;;;;1.10;0.77;;;;;;;;;;5092728;28;20461;-43
2022/02/26 02:42:04;;;;;;;1.33;0.70;;;;;;;;;;5093250;28;20362;-47
2022/02/26 02:44:30;;;;;;;1.33;0.60;;;;;;;;;;5092459;28;20028;-43
2022/02/26 02:46:56;;;;;;;1.17;0.50;;;;;;;;;;5092863;28;20024;-46
2022/02/26 02:49:22;;;;;;;1.17;0.50;;;;;;;;;;5075480;28;20054;-45
2022/02/26 02:51:48;;;;;;;1.90;0.80;;;;;;;;;;5092202;28;20030;-43
2022/02/26 02:54:14;;;;;;;1.20;0.70;;;;;;;;;;5092963;28;20020;-43
2022/02/26 02:56:40;;;;;;;0.93;0.63;;;;;;;;;;5083125;28;20115;-43
2022/02/26 02:59:06;;;;;;;2.58;0.90;;;;;;;;;;5072897;28;20028;-44
2022/02/26 03:01:32;;;;;;;1.92;0.70;;;;;;;;;;5072309;28;20028;-43
2022/02/26 03:03:59;;;;;;;2.25;0.98;;;;;;;;;;5072939;28;20025;-45
2022/02/26 03:06:25;;;;;;;0.98;0.82;;;;;;;;;;5072627;28;20021;-51
2022/02/26 03:08:52;;;;;;;1.80;0.85;;;;;;;;;;5074313;28;20512;-43
2022/02/26 03:11:19;;;;;;;1.50;0.85;;;;;;;;;;5072947;28;20025;-43
2022/02/26 03:13:46;;;;;;;1.33;0.60;;;;;;;;;;5071977;28;20025;-43
2022/02/26 03:16:12;;;;;;;1.67;0.70;;;;;;;;;;5073151;28;20059;-43
2022/02/26 03:18:38;;;;;;;1.02;0.63;;;;;;;;;;5073034;28;20040;-44
2022/02/26 03:21:04;;;;;;;1.40;0.88;;;;;;;;;;5081090;28;20377;-44
2022/02/26 03:23:30;;;;;;;1.52;0.50;;;;;;;;;;5091860;28;20020;-44
2022/02/26 03:25:56;;;;;;;1.15;0.52;;;;;;;;;;5073702;28;20039;-43
2022/02/26 03:28:22;;;;;;;2.30;0.70;;;;;;;;;;5072538;28;20028;-45
2022/02/26 03:30:49;;;;;;;1.02;0.80;;;;;;;;;;5071843;28;20020;-45
2022/02/26 03:33:15;;;;;;;1.20;0.50;;;;;;;;;;5082894;28;20024;-43
2022/02/26 03:35:41;;;;;;;1.88;0.60;;;;;;;;;;5092167;28;20103;-45
2022/02/26 03:38:07;;;;;;;3.33;1.38;;;;;;;;;;5091876;28;20376;-43
2022/02/26 03:40:34;;;;;;;2.38;0.50;;;;;;;;;;5092019;28;20102;-43
2022/02/26 03:43:00;;;;;;;1.52;0.60;;;;;;;;;;5091685;28;20056;-47
2022/02/26 03:45:26;;;;;;;1.65;0.70;;;;;;;;;;5084555;28;20380;-49
2022/02/26 03:47:52;;;;;;;1.60;1.10;;;;;;;;;;5092330;28;20032;-43
2022/02/26 03:50:18;;;;;;;1.40;0.60;;;;;;;;;;5092474;28;20039;-46
2022/02/26 03:52:44;;;;;;;2.33;1.30;;;;;;;;;;5077099;28;20021;-43
2022/02/26 03:55:10;;;;;;;4.22;0.98;;;;;;;;;;5071761;28;20351;-44
2022/02/26 03:57:37;;;;;;;3.05;0.70;;;;;;;;;;5087500;28;20044;-45
2022/02/26 04:00:06;;;;;;;1.10;0.68;;;;;;;;;;5092432;28;20024;-43
2022/02/26 04:02:34;;;;;;;1.38;0.68;;;;;;;;;;5091888;28;20032;-45
2022/02/26 04:05:00;;;;;;;0.95;0.60;;;;;;;;;;5092328;28;20110;-43
2022/02/26 04:07:26;;;;;;;1.90;0.68;;;;;;;;;;5094471;28;20574;-45
2022/02/26 04:09:52;;;;;;;1.80;0.82;;;;;;;;;;5077616;28;20461;-44
2022/02/26 04:12:18;;;;;;;1.40;0.60;;;;;;;;;;5076244;28;20032;-43
2022/02/26 04:14:44;;;;;;;1.05;0.65;;;;;;;;;;5075422;28;20045;-44
2022/02/26 04:17:10;;;;;;;1.77;1.10;;;;;;;;;;5076129;28;20039;-44
2022/02/26 04:19:36;;;;;;;1.20;0.77;;;;;;;;;;5080082;28;20465;-45
2022/02/26 04:22:02;;;;;;;1.50;0.75;;;;;;;;;;5096475;28;20031;-45
2022/02/26 04:24:28;;;;;;;1.35;0.77;;;;;;;;;;5095704;28;20024;-43
2022/02/26 04:26:54;;;;;;;0.80;0.60;;;;;;;;;;5086169;28;20377;-43
2022/02/26 04:29:20;;;;;;;1.42;0.55;;;;;;;;;;5078141;28;20044;-46
2022/02/26 04:31:46;;;;;;;1.67;0.63;;;;;;;;;;5095608;28;20438;-47
2022/02/26 04:34:12;;;;;;;1.05;0.60;;;;;;;;;;5095729;28;20526;-44
2022/02/26 04:36:38;;;;;;;1.30;0.60;;;;;;;;;;5095486;28;20028;-44
2022/02/26 04:39:05;;;;;;;1.13;0.70;;;;;;;;;;5095905;28;20372;-43
2022/02/26 04:41:31;;;;;;;1.92;0.88;;;;;;;;;;5089960;28;20035;-47
2022/02/26 04:43:57;;;;;;;2.88;0.70;;;;;;;;;;5083957;28;20016;-43
2022/02/26 04:46:23;;;;;;;0.85;0.50;;;;;;;;;;5090842;28;20028;-43
2022/02/26 04:48:49;;;;;;;1.30;0.73;;;;;;;;;;5074916;28;20042;-46
2022/02/26 04:51:15;;;;;;;1.40;0.60;;;;;;;;;;5077495;28;20021;-47
2022/02/26 04:53:41;;;;;;;0.93;0.60;;;;;;;;;;5095177;28;20031;-43
2022/02/26 04:56:08;;;;;;;1.65;0.75;;;;;;;;;;5095022;28;20524;-43
2022/02/26 04:58:35;;;;;;;1.58;0.60;;;;;;;;;;5095060;28;20035;-46
2022/02/26 05:01:01;;;;;;;3.50;1.27;;;;;;;;;;5095539;28;20098;-43
2022/02/26 05:03:27;;;;;;;1.77;1.27;;;;;;;;;;5093065;28;20020;-48
2022/02/26 05:05:53;;;;;;;2.00;0.90;;;;;;;;;;5074610;28;20033;-44
2022/02/26 05:08:19;;;;;;;2.40;0.70;;;;;;;;;;5081979;28;20020;-44
2022/02/26 05:10:45;;;;;;;1.83;0.80;;;;;;;;;;5094733;28;20103;-44
2022/02/26 05:13:11;;;;;;;3.33;0.93;;;;;;;;;;5094786;28;20064;-43
2022/02/26 05:15:37;;;;;;;2.28;0.75;;;;;;;;;;5093588;28;20052;-43
2022/02/26 05:18:04;;;;;;;2.25;0.80;;;;;;;;;;5094124;28;20063;-43
2022/02/26 05:20:30;;;;;;;1.30;0.70;;;;;;;;;;5094710;28;20043;-48
2022/02/26 05:22:57;;;;;;;1.05;0.50;;;;;;;;;;5095178;28;20480;-41
2022/02/26 05:25:23;;;;;;;2.40;0.80;;;;;;;;;;5076918;28;20059;-43
2022/02/26 05:27:49;;;;;;;2.70;1.35;;;;;;;;;;5073953;28;20752;-43
2022/02/26 05:30:16;;;;;;;2.35;1.08;;;;;;;;;;5056724;28;20032;-44
2022/02/26 05:32:42;;;;;;;1.48;0.68;;;;;;;;;;5088892;28;20158;-43
2022/02/26 05:35:09;;;;;;;3.75;0.90;;;;;;;;;;5079231;28;20071;-44
2022/02/26 05:37:35;;;;;;;1.17;0.60;;;;;;;;;;5073866;28;20032;-43
2022/02/26 05:40:01;;;;;;;1.80;0.77;;;;;;;;;;5078400;28;20033;-44
2022/02/26 05:42:27;;;;;;;1.85;0.60;;;;;;;;;;5087389;28;20069;-45
2022/02/26 05:44:53;;;;;;;1.92;0.60;;;;;;;;;;5077826;28;20029;-44
2022/02/26 05:47:20;;;;;;;3.72;1.08;;;;;;;;;;5093072;28;20032;-47
2022/02/26 05:49:46;;;;;;;3.28;0.90;;;;;;;;;;5094106;28;20032;-42
2022/02/26 05:52:12;;;;;;;2.35;0.93;;;;;;;;;;5083805;28;20060;-47
2022/02/26 05:54:38;;;;;;;2.50;0.82;;;;;;;;;;5073759;28;20166;-43
2022/02/26 05:57:04;;;;;;;1.67;0.82;;;;;;;;;;5073929;28;20060;-44
2022/02/26 05:59:30;;;;;;;1.50;0.60;;;;;;;;;;5074780;28;20085;-49
2022/02/26 06:01:57;;;;;;;3.13;1.00;;;;;;;;;;5074446;28;20035;-43
2022/02/26 06:04:23;;;;;;;2.33;0.90;;;;;;;;;;5073900;28;20470;-45
2022/02/26 06:06:49;;;;;;;3.78;0.70;;;;;;;;;;5073503;28;20119;-44
2022/02/26 06:09:15;;;;;;;1.80;1.00;;;;;;;;;;5088253;28;20036;-43
2022/02/26 06:11:41;;;;;;;1.58;0.60;;;;;;;;;;5073961;28;20033;-44
2022/02/26 06:14:07;;;;;;;2.35;0.85;;;;;;;;;;5073402;28;20452;-43
2022/02/26 06:16:33;;;;;;;3.72;1.00;;;;;;;;;;5073175;28;20554;-45
2022/02/26 06:18:59;;;;;;;1.52;0.90;;;;;;;;;;5073898;28;20382;-44
2022/02/26 06:21:25;;;;;;;2.20;1.15;;;;;;;;;;5078389;28;20089;-46
2022/02/26 06:23:51;;;;;;;2.47;1.02;;;;;;;;;;5093495;28;20028;-41
2022/02/26 06:26:17;;;;;;;2.95;0.80;;;;;;;;;;5089873;28;20091;-43
2022/02/26 06:28:43;;;;;;;2.05;1.20;;;;;;;;;;5073028;28;20024;-44
2022/02/26 06:31:09;;;;;;;2.17;1.00;;;;;;;;;;5075343;28;20052;-47
2022/02/26 06:33:35;;;;;;;3.47;1.27;;;;;;;;;;5092897;28;20528;-50
2022/02/26 06:36:01;;;;;;;1.58;0.90;;;;;;;;;;5092792;28;20477;-44
2022/02/26 06:38:27;;;;;;;2.47;1.00;;;;;;;;;;5093508;28;20036;-43
2022/02/26 06:40:53;;;;;;;2.55;0.52;;;;;;;;;;5093042;28;20111;-44
2022/02/26 06:43:20;;;;;;;1.98;0.98;;;;;;;;;;5090422;28;20055;-44
2022/02/26 06:45:46;;;;;;;1.35;0.70;;;;;;;;;;5092973;28;20071;-45
2022/02/26 06:48:12;;;;;;;2.10;0.82;;;;;;;;;;5093420;28;20028;-44
2022/02/26 06:50:38;;;;;;;2.40;1.13;;;;;;;;;;5092730;28;20115;-42
2022/02/26 06:53:04;;;;;;;1.25;0.73;;;;;;;;;;5092923;28;20052;-45
2022/02/26 06:55:30;;;;;;;3.17;0.80;;;;;;;;;;5088917;28;20029;-42
2022/02/26 06:57:57;;;;;;;2.05;1.05;;;;;;;;;;5071979;28;20021;-44
2022/02/26 07:00:23;;;;;;;1.73;0.90;;;;;;;;;;5072811;28;20396;-50
2022/02/26 07:02:49;;;;;;;2.08;1.05;;;;;;;;;;5072917;28;20055;-46
2022/02/26 07:05:15;;;;;;;2.42;1.00;;;;;;;;;;5072956;28;20448;-41
2022/02/26 07:07:41;;;;;;;1.88;1.00;;;;;;;;;;5059733;28;20439;-45
2022/02/26 07:10:08;;;;;;;2.13;0.70;;;;;;;;;;5093195;28;20049;-48
2022/02/26 07:12:34;;;;;;;2.63;0.75;;;;;;;;;;5079619;28;21405;-49
2022/02/26 07:15:00;;;;;;;3.05;0.98;;;;;;;;;;5092412;28;20085;-45
2022/02/26 07:17:26;;;;;;;1.35;0.70;;;;;;;;;;5092587;28;20170;-43
2022/02/26 07:19:52;;;;;;;2.33;0.77;;;;;;;;;;5082084;28;20025;-47
2022/02/26 07:22:18;;;;;;;5.38;0.95;;;;;;;;;;5072221;28;20031;-46
2022/02/26 07:24:45;;;;;;;1.85;0.90;;;;;;;;;;5071869;28;20020;-45
2022/02/26 07:27:13;;;;;;;3.47;1.15;;;;;;;;;;5072258;28;20020;-44
2022/02/26 07:29:40;;;;;;;2.40;1.00;;;;;;;;;;5071727;28;20062;-43
2022/02/26 07:32:06;;;;;;;2.80;1.00;;;;;;;;;;5083868;28;20063;-44
2022/02/26 07:34:32;;;;;;;3.42;1.38;;;;;;;;;;5092176;28;20040;-43
2022/02/26 07:36:58;;;;;;;1.48;0.70;;;;;;;;;;5092103;28;20043;-44
2022/02/26 07:39:24;;;;;;;2.38;0.85;;;;;;;;;;5086757;28;20090;-43
2022/02/26 07:41:50;;;;;;;1.95;0.95;;;;;;;;;;5071149;28;20024;-43
2022/02/26 07:44:16;;;;;;;3.15;0.80;;;;;;;;;;5074095;28;20036;-47
2022/02/26 07:46:42;;;;;;;3.05;0.90;;;;;;;;;;5071973;28;20032;-46
2022/02/26 07:49:08;;;;;;;1.90;1.35;;;;;;;;;;5072253;28;20441;-45
2022/02/26 07:51:34;;;;;;;2.03;0.82;;;;;;;;;;5072430;28;20052;-44
2022/02/26 07:54:00;;;;;;;3.70;0.93;;;;;;;;;;5071901;28;20420;-44
2022/02/26 07:56:27;;;;;;;1.88;0.77;;;;;;;;;;5085057;28;20028;-43
2022/02/26 07:58:52;;;;;;;1.75;0.60;;;;;;;;;;5091403;28;20048;-47
2022/02/26 08:01:19;;;;;;;5.18;0.88;;;;;;;;;;5072244;28;20484;-46
2022/02/26 08:03:45;;;;;;;2.65;1.02;;;;;;;;;;5071389;28;20099;-45
2022/02/26 08:06:11;;;;;;;5.78;1.15;;;;;;;;;;5091504;28;20031;-46
2022/02/26 08:08:37;;;;;;;3.03;1.08;;;;;;;;;;5081676;28;20016;-46
2022/02/26 08:11:03;;;;;;;1.17;0.90;;;;;;;;;;5075370;28;20480;-47
2022/02/26 08:13:29;;;;;;;3.42;1.25;;;;;;;;;;5077366;28;20115;-47
2022/02/26 08:15:55;;;;;;;8.02;1.40;;;;;;;;;;5070852;28;20044;-45
2022/02/26 08:18:22;;;;;;;2.75;1.10;;;;;;;;;;5071971;28;20017;-47
2022/02/26 08:20:48;;;;;;;1.38;0.80;;;;;;;;;;5071488;28;20028;-46
2022/02/26 08:23:14;;;;;;;2.50;1.10;;;;;;;;;;5071927;28;20024;-47
2022/02/26 08:25:40;;;;;;;2.80;0.90;;;;;;;;;;5090969;28;20364;-48
2022/02/26 08:28:06;;;;;;;3.08;1.63;;;;;;;;;;5092415;28;20023;-45
2022/02/26 08:30:32;;;;;;;3.05;1.10;;;;;;;;;;5092903;28;20031;-48
2022/02/26 08:32:58;;;;;;;2.53;0.88;;;;;;;;;;5091673;28;20043;-48
2022/02/26 08:35:25;;;;;;;2.35;1.10;;;;;;;;;;5074682;28;20021;-46
2022/02/26 08:37:51;;;;;;;1.85;0.88;;;;;;;;;;5080532;28;20012;-47
2022/02/26 08:40:18;;;;;;;2.38;1.13;;;;;;;;;;5092035;28;20024;-45
2022/02/26 08:42:44;;;;;;;2.42;0.70;;;;;;;;;;5091086;28;20044;-44
2022/02/26 08:45:11;;;;;;;3.95;1.20;;;;;;;;;;5077023;28;20450;-46
2022/02/26 08:47:37;;;;;;;2.55;0.90;;;;;;;;;;5091555;28;20039;-45
2022/02/26 08:50:04;;;;;;;2.33;0.85;;;;;;;;;;5091047;28;20024;-47
2022/02/26 08:52:30;;;;;;;3.28;0.77;;;;;;;;;;5085203;28;20024;-48
2022/02/26 08:54:56;;;;;;;3.42;0.77;;;;;;;;;;5082591;28;20027;-47
2022/02/26 08:57:23;;;;;;;3.13;0.95;;;;;;;;;;5084732;28;20029;-46
2022/02/26 08:59:49;;;;;;;5.13;1.20;;;;;;;;;;5085010;28;20039;-46
2022/02/26 09:02:15;;;;;;;5.07;1.08;;;;;;;;;;5083529;28;20469;-48
2022/02/26 09:04:41;;;;;;;7.70;1.25;;;;;;;;;;5078396;28;20096;-44
2022/02/26 09:07:07;;;;;;;2.78;1.10;;;;;;;;;;5075058;28;20577;-44
2022/02/26 09:09:33;;;;;;;8.45;1.13;;;;;;;;;;5087759;28;20024;-46
2022/02/26 09:12:00;;;;;;;4.00;1.27;;;;;;;;;;5094555;28;20511;-44
2022/02/26 09:14:26;;;;;;;9.85;1.02;;;;;;;;;;5089975;28;20052;-46
2022/02/26 09:16:52;;;;;;;4.13;0.93;;;;;;;;;;5083287;28;20385;-46
2022/02/26 09:19:18;;;;;;;3.45;0.90;;;;;;;;;;5083695;28;20032;-46
2022/02/26 09:21:44;;;;;;;4.97;0.90;;;;;;;;;;5083777;28;20480;-44
2022/02/26 09:24:10;;;;;;;2.28;1.10;;;;;;;;;;5086849;28;20070;-44
2022/02/26 09:26:36;;;;;;;2.83;1.05;;;;;;;;;;5083773;28;20024;-44
2022/02/26 09:29:02;;;;;;;8.88;1.15;;;;;;;;;;5083885;28;20047;-44
2022/02/26 09:31:28;;;;;;;3.08;1.13;;;;;;;;;;5082553;28;20040;-49
2022/02/26 09:33:54;;;;;;;8.35;1.65;;;;;;;;;;5083109;28;20071;-44
2022/02/26 09:36:20;;;;;;;5.60;1.08;;;;;;;;;;5091647;28;20032;-44
2022/02/26 09:38:46;;;;;;;6.43;1.38;;;;;;;;;;5083434;28;21205;-43
2022/02/26 09:41:13;;;;;;;4.50;0.88;;;;;;;;;;5081051;28;20028;-45
2022/02/26 09:43:40;;;;;;;5.53;1.13;;;;;;;;;;5081709;28;20024;-47
2022/02/26 09:46:07;;;;;;;3.33;1.60;;;;;;;;;;5085335;28;20056;-44
2022/02/26 09:48:33;;;;;;;4.80;1.23;;;;;;;;;;5063664;28;20412;-47
2022/02/26 09:51:00;;;;;;;7.25;1.90;;;;;;;;;;5087521;28;20492;-44
2022/02/26 09:53:26;;;;;;;5.18;1.58;;;;;;;;;;5084213;28;20116;-43
2022/02/26 09:55:53;;;;;;;4.50;1.55;;;;;;;;;;5082652;28;20088;-44
2022/02/26 09:58:19;;;;;;;5.38;1.35;;;;;;;;;;5083488;28;20100;-45
2022/02/26 10:00:46;;;;;;;11.27;2.00;;;;;;;;;;5084522;28;20055;-44
2022/02/26 10:03:44;;;;;;;3.08;0.90;;;;;;;;;;5093716;28;20085;-44
2022/02/26 10:06:12;;;;;;;8.27;1.40;;;;;;;;;;5039487;28;20073;-44
2022/02/26 10:08:41;;;;;;;4.90;1.40;;;;;;;;;;5082651;28;20111;-44
2022/02/26 10:11:21;;;;;;;3.90;1.33;;;;;;;;;;5084326;28;20369;-44
2022/02/26 10:13:46;;;;;;;3.83;1.10;;;;;;;;;;5084610;28;20051;-44
2022/02/26 10:16:12;;;;;;;5.50;1.17;;;;;;;;;;5093931;28;20066;-45
2022/02/26 10:18:50;;;;;;;4.65;1.52;;;;;;;;;;5073798;28;20036;-43
2022/02/26 10:21:27;;;;;;;6.57;1.63;;;;;;;;;;5076156;28;20043;-44
2022/02/26 10:23:53;;;;;;;2.70;1.40;;;;;;;;;;5093320;28;20028;-45
2022/02/26 10:26:24;;;;;;;5.43;1.27;;;;;;;;;;5092497;28;20377;-45
2022/02/26 10:28:50;;;;;;;2.97;1.20;;;;;;;;;;5092899;28;20035;-44
2022/02/26 10:31:16;;;;;;;6.35;1.55;;;;;;;;;;5092767;28;20028;-44
2022/02/26 10:33:42;;;;;;;2.65;1.10;;;;;;;;;;5092263;28;20028;-43
2022/02/26 10:36:10;;;;;;;8.10;1.48;;;;;;;;;;5093201;28;20146;-46
2022/02/26 10:38:37;;;;;;;4.63;1.30;;;;;;;;;;5092710;28;20039;-47
2022/02/26 10:41:13;;;;;;;3.83;1.33;;;;;;;;;;5088633;28;20100;-47
2022/02/26 10:43:39;;;;;;;6.35;1.42;;;;;;;;;;5078533;28;20365;-44
2022/02/26 10:46:15;;;;;;;2.75;1.10;;;;;;;;;;5092662;28;20077;-48
2022/02/26 10:48:42;;;;;;;3.80;0.98;;;;;;;;;;5092700;28;20103;-52
2022/02/26 10:51:34;;;;;;;2.83;1.52;;;;;;;;;;5092985;28;20380;-45
2022/02/26 10:54:02;;;;;;;6.55;1.35;;;;;;;;;;5075677;28;20041;-46
2022/02/26 10:56:39;;;;;;;8.95;2.58;;;;;;;;;;5072454;28;20017;-44
2022/02/26 10:59:08;;;;;;;7.60;3.13;;;;;;;;;;5072330;28;20068;-43
2022/02/26 11:01:35;;;;;;;8.70;2.40;;;;;;;;;;5080132;28;20118;-42
2022/02/26 11:04:01;;;;;;;2.58;1.60;;;;;;;;;;5091653;28;20031;-44
2022/02/26 11:06:28;;;;;;;5.57;2.42;;;;;;;;;;5091958;28;20457;-43
2022/02/26 11:08:55;;;;;;;3.22;1.50;;;;;;;;;;5079771;28;20040;-45
2022/02/26 11:11:22;;;;;;;2.80;1.50;;;;;;;;;;5078599;28;20123;-44
2022/02/26 11:13:50;;;;;;;2.88;1.38;;;;;;;;;;5092217;28;20020;-44
2022/02/26 11:16:18;;;;;;;3.20;1.65;;;;;;;;;;5090973;28;20024;-44
2022/02/26 11:18:45;;;;;;;3.70;1.33;;;;;;;;;;5091982;28;20067;-46
2022/02/26 11:21:12;;;;;;;2.47;1.10;;;;;;;;;;5087022;28;20401;-44
2022/02/26 11:23:39;;;;;;;3.35;1.00;;;;;;;;;;5092772;28;20020;-44
2022/02/26 11:26:07;;;;;;;5.38;1.45;;;;;;;;;;5092055;28;20028;-45
2022/02/26 11:28:34;;;;;;;3.80;1.75;;;;;;;;;;5092788;28;20039;-44
2022/02/26 11:31:04;;;;;;;3.80;2.05;;;;;;;;;;5091255;28;20419;-45
2022/02/26 11:33:30;;;;;;;3.83;1.20;;;;;;;;;;5084804;28;20024;-47
2022/02/26 11:35:57;;;;;;;6.07;1.55;;;;;;;;;;5071636;28;20028;-45
2022/02/26 11:38:24;;;;;;;3.55;1.25;;;;;;;;;;5079670;28;20024;-44
2022/02/26 11:40:50;;;;;;;2.83;1.00;;;;;;;;;;5090720;28;20024;-44
2022/02/26 11:43:32;;;;;;;2.33;1.10;;;;;;;;;;5074933;28;20036;-44
2022/02/26 11:46:16;;;;;;;2.97;1.00;;;;;;;;;;5091608;28;20373;-44
2022/02/26 11:48:42;;;;;;;2.65;1.25;;;;;;;;;;5091689;28;20106;-48
2022/02/26 11:51:12;;;;;;;3.08;1.42;;;;;;;;;;5091641;28;20477;-48
2022/02/26 11:53:45;;;;;;;2.78;1.10;;;;;;;;;;5091764;28;20024;-50
2022/02/26 11:56:11;;;;;;;2.63;1.23;;;;;;;;;;5091068;28;20032;-45
2022/02/26 11:58:38;;;;;;;2.08;0.90;;;;;;;;;;5071922;28;20032;-44
2022/02/26 12:01:17;;;;;;;4.13;1.23;;;;;;;;;;5071247;28;20029;-43
2022/02/26 12:03:44;;;;;;;3.28;1.20;;;;;;;;;;5093401;28;20109;-43
2022/02/26 12:06:11;;;;;;;2.72;1.20;;;;;;;;;;5091559;28;20020;-43
2022/02/26 12:08:47;;;;;;;3.30;1.50;;;;;;;;;;5072023;28;20387;-44
2022/02/26 12:11:14;;;;;;;3.47;1.27;;;;;;;;;;5072303;28;20039;-44
2022/02/26 12:13:42;;;;;;;3.20;1.15;;;;;;;;;;5071652;28;20027;-47
2022/02/26 12:16:08;;;;;;;4.70;1.08;;;;;;;;;;5071317;28;20025;-44
2022/02/26 12:18:42;;;;;;;4.15;1.33;;;;;;;;;;5076274;28;20520;-44
2022/02/26 12:21:09;;;;;;;5.38;1.48;;;;;;;;;;5091260;28;20040;-45
2022/02/26 12:23:36;;;;;;;4.00;1.20;;;;;;;;;;5091247;28;20046;-44
2022/02/26 12:26:03;;;;;;;5.65;1.63;;;;;;;;;;5073233;28;20032;-45
2022/02/26 12:28:29;;;;;;;3.58;1.15;;;;;;;;;;5073933;28;20029;-45
2022/02/26 12:31:08;;;;;;;2.90;1.27;;;;;;;;;;5084372;28;20081;-44
2022/02/26 12:33:38;;;;;;;2.63;1.15;;;;;;;;;;5095712;28;20043;-48
2022/02/26 12:36:09;;;;;;;3.38;1.10;;;;;;;;;;5095217;28;20105;-44
2022/02/26 12:38:35;;;;;;;2.55;1.10;;;;;;;;;;5095497;28;20028;-44
2022/02/26 12:41:21;;;;;;;2.42;0.95;;;;;;;;;;5095407;28;20469;-44
2022/02/26 12:43:47;;;;;;;3.25;1.05;;;;;;;;;;5080971;28;20377;-48
2022/02/26 12:46:13;;;;;;;2.13;0.88;;;;;;;;;;5075707;28;20024;-47
2022/02/26 12:48:39;;;;;;;3.33;1.63;;;;;;;;;;5075001;28;20037;-46
2022/02/26 12:51:05;;;;;;;4.90;1.30;;;;;;;;;;5074114;28;20032;-45
2022/02/26 12:53:34;;;;;;;3.58;1.70;;;;;;;;;;5074583;28;20107;-45
2022/02/26 12:56:00;;;;;;;2.50;1.20;;;;;;;;;;5075536;28;20032;-45
2022/02/26 12:58:35;;;;;;;2.47;1.20;;;;;;;;;;5074959;28;20054;-44
2022/02/26 13:01:02;;;;;;;2.17;1.00;;;;;;;;;;5074663;28;20481;-43
2022/02/26 13:03:28;;;;;;;3.22;1.30;;;;;;;;;;5075488;28;20029;-44
2022/02/26 13:06:03;;;;;;;2.25;0.90;;;;;;;;;;5074846;28;20069;-44
2022/02/26 13:08:29;;;;;;;2.85;1.25;;;;;;;;;;5094076;28;20496;-44
2022/02/26 13:11:00;;;;;;;2.58;1.10;;;;;;;;;;5094666;28;20080;-43
2022/02/26 13:13:27;;;;;;;3.30;1.50;;;;;;;;;;5095547;28;20073;-49
2022/02/26 13:15:54;;;;;;;3.03;0.88;;;;;;;;;;5094229;28;20059;-45
2022/02/26 13:18:20;;;;;;;4.97;1.10;;;;;;;;;;5092009;28;20043;-47
2022/02/26 13:20:47;;;;;;;3.38;1.35;;;;;;;;;;5074269;28;20048;-45
2022/02/26 13:23:13;;;;;;;3.65;1.33;;;;;;;;;;5070036;28;20029;-45
2022/02/26 13:25:43;;;;;;;2.90;1.20;;;;;;;;;;5074858;28;20117;-46
2022/02/26 13:28:16;;;;;;;3.28;1.30;;;;;;;;;;5074307;28;20020;-45
2022/02/26 13:30:46;;;;;;;9.13;1.70;;;;;;;;;;5082262;28;20032;-45
2022/02/26 13:33:12;;;;;;;5.95;1.58;;;;;;;;;;5094571;28;20024;-46
2022/02/26 13:35:38;;;;;;;4.70;1.20;;;;;;;;;;5094853;28;20526;-46
2022/02/26 13:38:05;;;;;;;3.35;1.20;;;;;;;;;;5093794;28;20020;-45
2022/02/26 13:40:32;;;;;;;3.35;1.17;;;;;;;;;;5087533;28;20067;-44
2022/02/26 13:43:02;;;;;;;4.47;1.42;;;;;;;;;;5081208;28;20031;-43
2022/02/26 13:45:32;;;;;;;2.38;1.08;;;;;;;;;;5073944;28;20027;-45
2022/02/26 13:47:59;;;;;;;6.97;1.58;;;;;;;;;;5074063;28;20366;-45
2022/02/26 13:50:26;;;;;;;6.63;1.52;;;;;;;;;;5075932;28;20035;-44
2022/02/26 13:52:54;;;;;;;3.78;1.10;;;;;;;;;;5093259;28;20023;-45
2022/02/26 13:55:21;;;;;;;2.17;0.77;;;;;;;;;;5084716;28;20469;-45
2022/02/26 13:57:48;;;;;;;1.85;0.98;;;;;;;;;;5073601;28;20052;-48
2022/02/26 14:00:14;;;;;;;5.63;1.48;;;;;;;;;;5074082;28;20480;-45
2022/02/26 14:02:41;;;;;;;3.15;1.02;;;;;;;;;;5074100;28;20021;-45
2022/02/26 14:05:11;;;;;;;3.22;1.00;;;;;;;;;;5093660;28;20436;-49
2022/02/26 14:07:48;;;;;;;3.42;0.98;;;;;;;;;;5081094;28;20021;-47
2022/02/26 14:10:14;;;;;;;3.50;1.10;;;;;;;;;;5073670;28;20035;-46
2022/02/26 14:12:41;;;;;;;3.67;0.95;;;;;;;;;;5073592;28;20044;-51
2022/02/26 14:15:08;;;;;;;10.38;1.42;;;;;;;;;;5073211;28;20183;-47
2022/02/26 14:17:35;;;;;;;3.70;1.15;;;;;;;;;;5073705;28;20051;-45
2022/02/26 14:20:03;;;;;;;2.90;1.13;;;;;;;;;;5090037;28;20028;-43
2022/02/26 14:22:29;;;;;;;3.45;1.20;;;;;;;;;;5093630;28;20024;-45
2022/02/26 14:24:56;;;;;;;2.40;1.00;;;;;;;;;;5092449;28;20039;-45
2022/02/26 14:27:23;;;;;;;3.83;1.35;;;;;;;;;;5093913;28;20113;-46
2022/02/26 14:29:49;;;;;;;2.17;0.80;;;;;;;;;;5077357;28;20436;-45
2022/02/26 14:32:17;;;;;;;2.63;0.88;;;;;;;;;;5076013;28;20028;-46
2022/02/26 14:34:43;;;;;;;2.83;1.35;;;;;;;;;;5093649;28;20028;-49
2022/02/26 14:37:09;;;;;;;3.47;1.08;;;;;;;;;;5092891;28;20026;-45
2022/02/26 14:39:36;;;;;;;2.53;1.10;;;;;;;;;;5093419;28;20092;-48
2022/02/26 14:42:03;;;;;;;3.20;1.08;;;;;;;;;;5074744;28;20043;-46